sensor_id;sensor_type;location;lat;lon;timestamp;temperature;humidity
84141;DHT22;74257;52.540;13.416;2023-11-18T00:01:09;22.70;47.70
84141;DHT22;74257;52.540;13.416;2023-11-18T00:03:43;22.70;47.60
84141;DHT22;74257;52.540;13.416;2023-11-18T00:06:09;22.70;47.60
84141;DHT22;74257;52.540;13.416;2023-11-18T00:08:35;22.70;47.60
84141;DHT22;74257;52.540;13.416;2023-11-18T00:11:01;22.70;47.50
84141;DHT22;74257;52.540;13.416;2023-11-18T00:13:27;22.70;47.50
84141;DHT22;74257;52.540;13.416;2023-11-18T00:15:53;22.70;47.50
84141;DHT22;74257;52.540;13.416;2023-11-18T00:18:19;22.70;47.50
84141;DHT22;74257;52.540;13.416;2023-11-18T00:20:45;22.70;47.50
84141;DHT22;74257;52.540;13.416;2023-11-18T00:23:11;22.70;47.50
84141;DHT22;74257;52.540;13.416;2023-11-18T00:25:37;22.70;47.40
84141;DHT22;74257;52.540;13.416;2023-11-18T00:28:05;22.70;47.40
84141;DHT22;74257;52.540;13.416;2023-11-18T00:30:33;22.70;47.30
84141;DHT22;74257;52.540;13.416;2023-11-18T00:32:59;22.70;47.30
84141;DHT22;74257;52.540;13.416;2023-11-18T00:35:25;22.70;47.20
84141;DHT22;74257;52.540;13.416;2023-11-18T00:37:51;22.70;47.30
84141;DHT22;74257;52.540;13.416;2023-11-18T00:40:17;22.70;47.30
84141;DHT22;74257;52.540;13.416;2023-11-18T00:42:44;22.70;47.20
84141;DHT22;74257;52.540;13.416;2023-11-18T00:45:11;22.70;47.20
84141;DHT22;74257;52.540;13.416;2023-11-18T00:47:39;22.70;47.10
84141;DHT22;74257;52.540;13.416;2023-11-18T00:50:07;22.70;47.10
84141;DHT22;74257;52.540;13.416;2023-11-18T00:52:36;22.70;47.10
84141;DHT22;74257;52.540;13.416;2023-11-18T00:55:05;22.70;47.20
84141;DHT22;74257;52.540;13.416;2023-11-18T00:57:32;22.70;47.10
84141;DHT22;74257;52.540;13.416;2023-11-18T00:59:58;22.70;47.10
84141;DHT22;74257;52.540;13.416;2023-11-18T01:02:24;22.70;47.10
84141;DHT22;74257;52.540;13.416;2023-11-18T01:04:50;22.70;47.10
84141;DHT22;74257;52.540;13.416;2023-11-18T01:07:16;22.70;47.10
84141;DHT22;74257;52.540;13.416;2023-11-18T01:09:42;22.70;47.00
84141;DHT22;74257;52.540;13.416;2023-11-18T01:12:08;22.70;47.00
84141;DHT22;74257;52.540;13.416;2023-11-18T01:14:36;22.70;47.00
84141;DHT22;74257;52.540;13.416;2023-11-18T01:17:07;22.70;46.90
84141;DHT22;74257;52.540;13.416;2023-11-18T01:19:33;22.70;47.00
84141;DHT22;74257;52.540;13.416;2023-11-18T01:22:01;22.70;46.90
84141;DHT22;74257;52.540;13.416;2023-11-18T01:24:32;22.70;46.90
84141;DHT22;74257;52.540;13.416;2023-11-18T01:26:58;22.70;46.90
84141;DHT22;74257;52.540;13.416;2023-11-18T01:29:25;22.70;46.80
84141;DHT22;74257;52.540;13.416;2023-11-18T01:31:52;22.70;46.80
84141;DHT22;74257;52.540;13.416;2023-11-18T01:34:19;22.70;46.80
84141;DHT22;74257;52.540;13.416;2023-11-18T01:36:47;22.70;46.70
84141;DHT22;74257;52.540;13.416;2023-11-18T01:39:16;22.70;46.80
84141;DHT22;74257;52.540;13.416;2023-11-18T01:41:43;22.70;46.80
84141;DHT22;74257;52.540;13.416;2023-11-18T01:44:10;22.70;46.70
84141;DHT22;74257;52.540;13.416;2023-11-18T01:46:36;22.70;46.70
84141;DHT22;74257;52.540;13.416;2023-11-18T01:49:03;22.70;46.60
84141;DHT22;74257;52.540;13.416;2023-11-18T01:51:30;22.70;46.60
84141;DHT22;74257;52.540;13.416;2023-11-18T01:53:58;22.70;46.60
84141;DHT22;74257;52.540;13.416;2023-11-18T01:56:26;22.70;46.60
84141;DHT22;74257;52.540;13.416;2023-11-18T01:58:53;22.70;46.60
84141;DHT22;74257;52.540;13.416;2023-11-18T02:01:19;22.70;46.60
84141;DHT22;74257;52.540;13.416;2023-11-18T02:03:46;22.70;46.50
84141;DHT22;74257;52.540;13.416;2023-11-18T02:06:13;22.70;46.50
84141;DHT22;74257;52.540;13.416;2023-11-18T02:08:40;22.70;46.50
84141;DHT22;74257;52.540;13.416;2023-11-18T02:13:51;22.70;46.50
84141;DHT22;74257;52.540;13.416;2023-11-18T02:16:20;22.70;46.50
84141;DHT22;74257;52.540;13.416;2023-11-18T02:18:48;22.70;46.50
84141;DHT22;74257;52.540;13.416;2023-11-18T02:21:14;22.70;46.50
84141;DHT22;74257;52.540;13.416;2023-11-18T02:23:41;22.70;46.50
84141;DHT22;74257;52.540;13.416;2023-11-18T02:26:09;22.70;46.40
84141;DHT22;74257;52.540;13.416;2023-11-18T02:28:35;22.70;46.40
84141;DHT22;74257;52.540;13.416;2023-11-18T02:31:14;22.70;46.40
84141;DHT22;74257;52.540;13.416;2023-11-18T02:33:49;22.70;46.40
84141;DHT22;74257;52.540;13.416;2023-11-18T02:36:26;22.70;46.40
84141;DHT22;74257;52.540;13.416;2023-11-18T02:39:09;22.70;46.30
84141;DHT22;74257;52.540;13.416;2023-11-18T02:41:38;22.70;46.40
84141;DHT22;74257;52.540;13.416;2023-11-18T02:44:06;22.70;46.40
84141;DHT22;74257;52.540;13.416;2023-11-18T02:46:38;22.70;46.40
84141;DHT22;74257;52.540;13.416;2023-11-18T02:49:05;22.70;46.30
84141;DHT22;74257;52.540;13.416;2023-11-18T02:51:31;22.70;46.30
84141;DHT22;74257;52.540;13.416;2023-11-18T02:53:59;22.70;46.30
84141;DHT22;74257;52.540;13.416;2023-11-18T02:56:25;22.70;46.30
84141;DHT22;74257;52.540;13.416;2023-11-18T02:58:51;22.70;46.30
84141;DHT22;74257;52.540;13.416;2023-11-18T03:01:16;22.70;46.30
84141;DHT22;74257;52.540;13.416;2023-11-18T03:03:42;22.70;46.40
84141;DHT22;74257;52.540;13.416;2023-11-18T03:06:08;22.70;46.30
84141;DHT22;74257;52.540;13.416;2023-11-18T03:08:37;22.70;46.30
84141;DHT22;74257;52.540;13.416;2023-11-18T03:11:02;22.70;46.30
84141;DHT22;74257;52.540;13.416;2023-11-18T03:13:30;22.70;46.20
84141;DHT22;74257;52.540;13.416;2023-11-18T03:15:57;22.70;46.20
84141;DHT22;74257;52.540;13.416;2023-11-18T03:18:23;22.70;46.20
84141;DHT22;74257;52.540;13.416;2023-11-18T03:20:49;22.70;46.20
84141;DHT22;74257;52.540;13.416;2023-11-18T03:23:15;22.70;46.20
84141;DHT22;74257;52.540;13.416;2023-11-18T03:25:41;22.70;46.20
84141;DHT22;74257;52.540;13.416;2023-11-18T03:28:07;22.70;46.40
84141;DHT22;74257;52.540;13.416;2023-11-18T03:30:33;22.70;46.20
84141;DHT22;74257;52.540;13.416;2023-11-18T03:33:03;22.70;46.20
84141;DHT22;74257;52.540;13.416;2023-11-18T03:35:29;22.70;46.20
84141;DHT22;74257;52.540;13.416;2023-11-18T03:37:55;22.70;46.10
84141;DHT22;74257;52.540;13.416;2023-11-18T03:40:21;22.70;46.10
84141;DHT22;74257;52.540;13.416;2023-11-18T03:42:47;22.70;46.10
84141;DHT22;74257;52.540;13.416;2023-11-18T03:45:13;22.80;46.10
84141;DHT22;74257;52.540;13.416;2023-11-18T03:47:40;22.80;46.20
84141;DHT22;74257;52.540;13.416;2023-11-18T03:50:06;22.70;46.10
84141;DHT22;74257;52.540;13.416;2023-11-18T03:52:36;22.80;46.10
84141;DHT22;74257;52.540;13.416;2023-11-18T03:55:03;22.70;46.10
84141;DHT22;74257;52.540;13.416;2023-11-18T03:57:30;22.70;46.10
84141;DHT22;74257;52.540;13.416;2023-11-18T03:59:56;22.70;46.10
84141;DHT22;74257;52.540;13.416;2023-11-18T04:02:22;22.70;46.10
84141;DHT22;74257;52.540;13.416;2023-11-18T04:04:47;22.80;46.10
84141;DHT22;74257;52.540;13.416;2023-11-18T04:07:14;22.70;46.10
84141;DHT22;74257;52.540;13.416;2023-11-18T04:09:40;22.70;46.10
84141;DHT22;74257;52.540;13.416;2023-11-18T04:12:07;22.70;46.10
84141;DHT22;74257;52.540;13.416;2023-11-18T04:14:33;22.70;46.00
84141;DHT22;74257;52.540;13.416;2023-11-18T04:16:59;22.70;46.00
84141;DHT22;74257;52.540;13.416;2023-11-18T04:19:25;22.80;46.00
84141;DHT22;74257;52.540;13.416;2023-11-18T04:21:51;22.70;46.00
84141;DHT22;74257;52.540;13.416;2023-11-18T04:24:17;22.80;46.00
84141;DHT22;74257;52.540;13.416;2023-11-18T04:26:43;22.80;46.00
84141;DHT22;74257;52.540;13.416;2023-11-18T04:29:09;22.80;46.10
84141;DHT22;74257;52.540;13.416;2023-11-18T04:31:35;22.80;46.00
84141;DHT22;74257;52.540;13.416;2023-11-18T04:34:01;22.80;46.10
84141;DHT22;74257;52.540;13.416;2023-11-18T04:36:27;22.80;46.00
84141;DHT22;74257;52.540;13.416;2023-11-18T04:38:54;22.80;46.10
84141;DHT22;74257;52.540;13.416;2023-11-18T04:41:20;22.80;46.00
84141;DHT22;74257;52.540;13.416;2023-11-18T04:43:46;22.80;46.00
84141;DHT22;74257;52.540;13.416;2023-11-18T04:46:13;22.80;46.00
84141;DHT22;74257;52.540;13.416;2023-11-18T04:48:39;22.80;46.00
84141;DHT22;74257;52.540;13.416;2023-11-18T04:51:05;22.80;46.10
84141;DHT22;74257;52.540;13.416;2023-11-18T04:53:31;22.80;46.00
84141;DHT22;74257;52.540;13.416;2023-11-18T04:55:57;22.80;45.90
84141;DHT22;74257;52.540;13.416;2023-11-18T04:58:23;22.80;45.90
84141;DHT22;74257;52.540;13.416;2023-11-18T05:00:49;22.80;45.90
84141;DHT22;74257;52.540;13.416;2023-11-18T05:03:19;22.80;45.80
84141;DHT22;74257;52.540;13.416;2023-11-18T05:05:45;22.80;45.90
84141;DHT22;74257;52.540;13.416;2023-11-18T05:08:20;22.80;45.90
84141;DHT22;74257;52.540;13.416;2023-11-18T05:10:49;22.80;45.90
84141;DHT22;74257;52.540;13.416;2023-11-18T05:13:16;22.80;45.90
84141;DHT22;74257;52.540;13.416;2023-11-18T05:15:43;22.80;45.90
84141;DHT22;74257;52.540;13.416;2023-11-18T05:18:11;22.80;45.90
84141;DHT22;74257;52.540;13.416;2023-11-18T05:20:41;22.80;45.90
84141;DHT22;74257;52.540;13.416;2023-11-18T05:23:07;22.80;45.90
84141;DHT22;74257;52.540;13.416;2023-11-18T05:25:42;22.80;45.90
84141;DHT22;74257;52.540;13.416;2023-11-18T05:28:11;22.80;45.80
84141;DHT22;74257;52.540;13.416;2023-11-18T05:30:38;22.80;45.80
84141;DHT22;74257;52.540;13.416;2023-11-18T05:33:04;22.80;45.90
84141;DHT22;74257;52.540;13.416;2023-11-18T05:35:32;22.80;45.90
84141;DHT22;74257;52.540;13.416;2023-11-18T05:37:59;22.80;45.70
84141;DHT22;74257;52.540;13.416;2023-11-18T05:40:26;22.80;45.80
84141;DHT22;74257;52.540;13.416;2023-11-18T05:42:52;22.80;45.90
84141;DHT22;74257;52.540;13.416;2023-11-18T05:45:19;22.80;45.90
84141;DHT22;74257;52.540;13.416;2023-11-18T05:47:56;22.80;45.80
84141;DHT22;74257;52.540;13.416;2023-11-18T05:50:23;22.80;45.90
84141;DHT22;74257;52.540;13.416;2023-11-18T05:52:53;22.80;45.80
84141;DHT22;74257;52.540;13.416;2023-11-18T05:55:19;22.80;45.80
84141;DHT22;74257;52.540;13.416;2023-11-18T05:57:45;22.80;45.80
84141;DHT22;74257;52.540;13.416;2023-11-18T06:00:12;22.80;45.80
84141;DHT22;74257;52.540;13.416;2023-11-18T06:02:44;22.80;45.80
84141;DHT22;74257;52.540;13.416;2023-11-18T06:05:10;22.80;45.80
84141;DHT22;74257;52.540;13.416;2023-11-18T06:07:38;22.80;45.70
84141;DHT22;74257;52.540;13.416;2023-11-18T06:10:06;22.80;45.70
84141;DHT22;74257;52.540;13.416;2023-11-18T06:12:32;22.80;45.70
84141;DHT22;74257;52.540;13.416;2023-11-18T06:14:59;22.80;45.70
84141;DHT22;74257;52.540;13.416;2023-11-18T06:17:25;22.80;45.60
84141;DHT22;74257;52.540;13.416;2023-11-18T06:19:51;22.80;45.60
84141;DHT22;74257;52.540;13.416;2023-11-18T06:22:17;22.80;45.60
84141;DHT22;74257;52.540;13.416;2023-11-18T06:24:43;22.80;45.50
84141;DHT22;74257;52.540;13.416;2023-11-18T06:27:08;22.80;45.50
84141;DHT22;74257;52.540;13.416;2023-11-18T06:29:35;22.80;45.50
84141;DHT22;74257;52.540;13.416;2023-11-18T06:32:01;22.80;45.60
84141;DHT22;74257;52.540;13.416;2023-11-18T06:34:27;22.80;45.50
84141;DHT22;74257;52.540;13.416;2023-11-18T06:36:53;22.80;45.50
84141;DHT22;74257;52.540;13.416;2023-11-18T06:39:19;22.80;45.50
84141;DHT22;74257;52.540;13.416;2023-11-18T06:41:47;22.80;45.40
84141;DHT22;74257;52.540;13.416;2023-11-18T06:44:17;22.80;45.40
84141;DHT22;74257;52.540;13.416;2023-11-18T06:46:49;22.80;45.50
84141;DHT22;74257;52.540;13.416;2023-11-18T06:49:16;22.80;45.50
84141;DHT22;74257;52.540;13.416;2023-11-18T06:51:43;22.80;45.50
84141;DHT22;74257;52.540;13.416;2023-11-18T06:54:09;22.80;45.40
84141;DHT22;74257;52.540;13.416;2023-11-18T06:56:37;22.80;45.40
84141;DHT22;74257;52.540;13.416;2023-11-18T06:59:08;22.80;45.40
84141;DHT22;74257;52.540;13.416;2023-11-18T07:01:35;22.80;45.30
84141;DHT22;74257;52.540;13.416;2023-11-18T07:04:02;22.80;45.30
84141;DHT22;74257;52.540;13.416;2023-11-18T07:06:27;22.80;45.30
84141;DHT22;74257;52.540;13.416;2023-11-18T07:08:54;22.80;45.30
84141;DHT22;74257;52.540;13.416;2023-11-18T07:11:25;22.80;45.30
84141;DHT22;74257;52.540;13.416;2023-11-18T07:13:51;22.80;45.30
84141;DHT22;74257;52.540;13.416;2023-11-18T07:16:23;22.80;45.30
84141;DHT22;74257;52.540;13.416;2023-11-18T07:18:49;22.80;45.30
84141;DHT22;74257;52.540;13.416;2023-11-18T07:21:15;22.80;45.30
84141;DHT22;74257;52.540;13.416;2023-11-18T07:23:41;22.80;45.20
84141;DHT22;74257;52.540;13.416;2023-11-18T07:26:08;22.80;45.20
84141;DHT22;74257;52.540;13.416;2023-11-18T07:28:36;22.80;45.20
84141;DHT22;74257;52.540;13.416;2023-11-18T07:31:02;22.80;45.30
84141;DHT22;74257;52.540;13.416;2023-11-18T07:33:30;22.80;45.20
84141;DHT22;74257;52.540;13.416;2023-11-18T07:35:58;22.80;45.20
84141;DHT22;74257;52.540;13.416;2023-11-18T07:38:24;22.80;45.10
84141;DHT22;74257;52.540;13.416;2023-11-18T07:40:51;22.80;45.20
84141;DHT22;74257;52.540;13.416;2023-11-18T07:43:22;22.80;45.10
84141;DHT22;74257;52.540;13.416;2023-11-18T07:45:48;22.80;45.10
84141;DHT22;74257;52.540;13.416;2023-11-18T07:48:19;22.80;45.20
84141;DHT22;74257;52.540;13.416;2023-11-18T07:50:46;22.80;45.20
84141;DHT22;74257;52.540;13.416;2023-11-18T07:53:15;22.80;45.10
84141;DHT22;74257;52.540;13.416;2023-11-18T07:55:41;22.80;45.10
84141;DHT22;74257;52.540;13.416;2023-11-18T07:58:11;22.80;45.20
84141;DHT22;74257;52.540;13.416;2023-11-18T08:00:38;22.80;45.20
84141;DHT22;74257;52.540;13.416;2023-11-18T08:03:08;22.80;44.90
84141;DHT22;74257;52.540;13.416;2023-11-18T08:05:44;22.80;44.80
84141;DHT22;74257;52.540;13.416;2023-11-18T08:08:14;22.90;44.70
84141;DHT22;74257;52.540;13.416;2023-11-18T08:10:42;22.80;44.40
84141;DHT22;74257;52.540;13.416;2023-11-18T08:13:10;22.80;44.20
84141;DHT22;74257;52.540;13.416;2023-11-18T08:15:41;22.80;44.10
84141;DHT22;74257;52.540;13.416;2023-11-18T08:18:10;22.90;44.20
84141;DHT22;74257;52.540;13.416;2023-11-18T08:20:37;22.80;44.10
84141;DHT22;74257;52.540;13.416;2023-11-18T08:23:03;22.80;44.10
84141;DHT22;74257;52.540;13.416;2023-11-18T08:25:33;22.80;44.10
84141;DHT22;74257;52.540;13.416;2023-11-18T08:28:02;22.80;44.10
84141;DHT22;74257;52.540;13.416;2023-11-18T08:30:29;22.80;44.50
84141;DHT22;74257;52.540;13.416;2023-11-18T08:32:55;22.80;44.80
84141;DHT22;74257;52.540;13.416;2023-11-18T08:35:22;22.90;44.80
84141;DHT22;74257;52.540;13.416;2023-11-18T08:37:48;22.90;44.90
84141;DHT22;74257;52.540;13.416;2023-11-18T08:40:14;22.80;44.80
84141;DHT22;74257;52.540;13.416;2023-11-18T08:42:49;22.90;44.90
84141;DHT22;74257;52.540;13.416;2023-11-18T08:45:16;22.90;45.00
84141;DHT22;74257;52.540;13.416;2023-11-18T08:47:44;22.90;45.00
84141;DHT22;74257;52.540;13.416;2023-11-18T08:50:10;22.90;44.90
84141;DHT22;74257;52.540;13.416;2023-11-18T08:52:39;22.90;46.20
84141;DHT22;74257;52.540;13.416;2023-11-18T08:55:10;22.80;46.50
84141;DHT22;74257;52.540;13.416;2023-11-18T08:57:47;22.60;46.30
84141;DHT22;74257;52.540;13.416;2023-11-18T09:00:30;22.60;46.30
84141;DHT22;74257;52.540;13.416;2023-11-18T09:03:13;22.50;46.50
84141;DHT22;74257;52.540;13.416;2023-11-18T09:05:51;22.60;46.40
84141;DHT22;74257;52.540;13.416;2023-11-18T09:08:28;22.60;46.40
84141;DHT22;74257;52.540;13.416;2023-11-18T09:10:58;22.60;46.50
84141;DHT22;74257;52.540;13.416;2023-11-18T09:13:25;22.60;46.50
84141;DHT22;74257;52.540;13.416;2023-11-18T09:15:58;22.60;46.60
84141;DHT22;74257;52.540;13.416;2023-11-18T09:18:26;22.70;46.70
84141;DHT22;74257;52.540;13.416;2023-11-18T09:20:53;22.70;46.60
84141;DHT22;74257;52.540;13.416;2023-11-18T09:23:21;22.70;46.80
84141;DHT22;74257;52.540;13.416;2023-11-18T09:25:49;22.70;46.90
84141;DHT22;74257;52.540;13.416;2023-11-18T09:28:16;22.70;47.00
84141;DHT22;74257;52.540;13.416;2023-11-18T09:30:42;22.80;47.20
84141;DHT22;74257;52.540;13.416;2023-11-18T09:33:24;22.80;47.20
84141;DHT22;74257;52.540;13.416;2023-11-18T09:36:07;22.80;47.20
84141;DHT22;74257;52.540;13.416;2023-11-18T09:38:34;22.90;47.20
84141;DHT22;74257;52.540;13.416;2023-11-18T09:41:02;22.90;47.20
84141;DHT22;74257;52.540;13.416;2023-11-18T09:43:30;22.90;47.20
84141;DHT22;74257;52.540;13.416;2023-11-18T09:46:04;22.90;47.20
84141;DHT22;74257;52.540;13.416;2023-11-18T09:48:44;23.00;47.20
84141;DHT22;74257;52.540;13.416;2023-11-18T09:51:23;23.00;47.30
84141;DHT22;74257;52.540;13.416;2023-11-18T09:53:51;23.00;47.30
84141;DHT22;74257;52.540;13.416;2023-11-18T09:56:44;23.00;47.20
84141;DHT22;74257;52.540;13.416;2023-11-18T09:59:31;23.00;47.20
84141;DHT22;74257;52.540;13.416;2023-11-18T10:02:02;23.00;47.20
84141;DHT22;74257;52.540;13.416;2023-11-18T10:04:30;23.00;47.20
84141;DHT22;74257;52.540;13.416;2023-11-18T10:06:57;23.10;47.20
84141;DHT22;74257;52.540;13.416;2023-11-18T10:09:23;23.10;47.10
84141;DHT22;74257;52.540;13.416;2023-11-18T10:12:04;23.10;47.10
84141;DHT22;74257;52.540;13.416;2023-11-18T10:14:37;23.10;47.20
84141;DHT22;74257;52.540;13.416;2023-11-18T10:17:07;23.10;47.40
84141;DHT22;74257;52.540;13.416;2023-11-18T10:19:57;23.10;47.40
84141;DHT22;74257;52.540;13.416;2023-11-18T10:22:27;23.20;47.40
84141;DHT22;74257;52.540;13.416;2023-11-18T10:24:57;23.20;47.50
84141;DHT22;74257;52.540;13.416;2023-11-18T10:27:27;23.20;47.50
84141;DHT22;74257;52.540;13.416;2023-11-18T10:33:25;23.40;48.80
84141;DHT22;74257;52.540;13.416;2023-11-18T10:39:04;24.00;48.70
84141;DHT22;74257;52.540;13.416;2023-11-18T10:41:40;23.90;48.40
84141;DHT22;74257;52.540;13.416;2023-11-18T10:44:29;24.00;47.90
84141;DHT22;74257;52.540;13.416;2023-11-18T10:47:49;23.40;47.80
84141;DHT22;74257;52.540;13.416;2023-11-18T10:50:15;23.40;47.80
84141;DHT22;74257;52.540;13.416;2023-11-18T10:52:45;23.50;47.80
84141;DHT22;74257;52.540;13.416;2023-11-18T10:55:11;23.50;47.90
84141;DHT22;74257;52.540;13.416;2023-11-18T10:57:38;23.50;47.90
84141;DHT22;74257;52.540;13.416;2023-11-18T11:00:06;23.50;47.90
84141;DHT22;74257;52.540;13.416;2023-11-18T11:02:44;23.50;47.90
84141;DHT22;74257;52.540;13.416;2023-11-18T11:05:30;23.60;47.90
84141;DHT22;74257;52.540;13.416;2023-11-18T11:08:04;23.60;47.90
84141;DHT22;74257;52.540;13.416;2023-11-18T11:10:31;23.60;47.90
84141;DHT22;74257;52.540;13.416;2023-11-18T11:13:00;23.60;47.90
84141;DHT22;74257;52.540;13.416;2023-11-18T11:15:32;23.60;47.80
84141;DHT22;74257;52.540;13.416;2023-11-18T11:18:05;23.60;47.70
84141;DHT22;74257;52.540;13.416;2023-11-18T11:20:42;23.60;47.60
84141;DHT22;74257;52.540;13.416;2023-11-18T11:23:41;23.70;47.40
84141;DHT22;74257;52.540;13.416;2023-11-18T11:28:42;23.70;47.10
84141;DHT22;74257;52.540;13.416;2023-11-18T11:31:20;23.70;47.00
84141;DHT22;74257;52.540;13.416;2023-11-18T11:33:59;23.80;47.00
84141;DHT22;74257;52.540;13.416;2023-11-18T11:36:38;23.80;46.90
84141;DHT22;74257;52.540;13.416;2023-11-18T11:39:08;23.80;46.80
84141;DHT22;74257;52.540;13.416;2023-11-18T11:41:50;23.80;46.80
84141;DHT22;74257;52.540;13.416;2023-11-18T11:44:17;23.80;46.80
84141;DHT22;74257;52.540;13.416;2023-11-18T11:46:45;23.80;46.70
84141;DHT22;74257;52.540;13.416;2023-11-18T11:49:12;23.80;46.70
84141;DHT22;74257;52.540;13.416;2023-11-18T11:51:47;23.80;46.70
84141;DHT22;74257;52.540;13.416;2023-11-18T11:54:26;23.90;46.70
84141;DHT22;74257;52.540;13.416;2023-11-18T11:56:57;23.90;47.00
84141;DHT22;74257;52.540;13.416;2023-11-18T12:02:11;23.90;47.40
84141;DHT22;74257;52.540;13.416;2023-11-18T12:04:59;23.90;47.40
84141;DHT22;74257;52.540;13.416;2023-11-18T12:07:31;23.90;47.40
84141;DHT22;74257;52.540;13.416;2023-11-18T12:10:08;23.90;47.30
84141;DHT22;74257;52.540;13.416;2023-11-18T12:12:39;24.00;47.40
84141;DHT22;74257;52.540;13.416;2023-11-18T12:15:05;24.00;47.30
84141;DHT22;74257;52.540;13.416;2023-11-18T12:20:43;24.00;47.30
84141;DHT22;74257;52.540;13.416;2023-11-18T12:23:22;24.00;47.20
84141;DHT22;74257;52.540;13.416;2023-11-18T12:25:51;24.00;47.20
84141;DHT22;74257;52.540;13.416;2023-11-18T12:28:32;24.00;47.20
84141;DHT22;74257;52.540;13.416;2023-11-18T12:31:07;24.00;47.20
84141;DHT22;74257;52.540;13.416;2023-11-18T12:39:20;24.00;47.30
84141;DHT22;74257;52.540;13.416;2023-11-18T12:42:06;24.10;47.30
84141;DHT22;74257;52.540;13.416;2023-11-18T12:44:39;24.10;47.40
84141;DHT22;74257;52.540;13.416;2023-11-18T12:47:12;24.10;47.40
84141;DHT22;74257;52.540;13.416;2023-11-18T12:49:45;24.10;47.40
84141;DHT22;74257;52.540;13.416;2023-11-18T12:52:15;24.10;47.30
84141;DHT22;74257;52.540;13.416;2023-11-18T12:54:44;24.10;47.30
84141;DHT22;74257;52.540;13.416;2023-11-18T12:57:19;24.20;47.20
84141;DHT22;74257;52.540;13.416;2023-11-18T12:59:49;24.20;47.30
84141;DHT22;74257;52.540;13.416;2023-11-18T13:02:15;24.20;47.30
84141;DHT22;74257;52.540;13.416;2023-11-18T13:04:49;24.20;47.30
84141;DHT22;74257;52.540;13.416;2023-11-18T13:07:19;24.20;47.30
84141;DHT22;74257;52.540;13.416;2023-11-18T13:09:47;24.20;47.20
84141;DHT22;74257;52.540;13.416;2023-11-18T13:12:14;24.20;47.20
84141;DHT22;74257;52.540;13.416;2023-11-18T13:14:46;24.20;47.10
84141;DHT22;74257;52.540;13.416;2023-11-18T13:17:14;24.20;47.10
84141;DHT22;74257;52.540;13.416;2023-11-18T13:19:42;24.20;47.10
84141;DHT22;74257;52.540;13.416;2023-11-18T13:22:12;24.20;47.00
84141;DHT22;74257;52.540;13.416;2023-11-18T13:24:44;24.20;47.10
84141;DHT22;74257;52.540;13.416;2023-11-18T13:27:10;24.20;47.10
84141;DHT22;74257;52.540;13.416;2023-11-18T13:29:38;24.20;47.10
84141;DHT22;74257;52.540;13.416;2023-11-18T13:32:09;24.20;47.10
84141;DHT22;74257;52.540;13.416;2023-11-18T13:34:35;24.20;47.10
84141;DHT22;74257;52.540;13.416;2023-11-18T13:37:04;24.20;47.10
84141;DHT22;74257;52.540;13.416;2023-11-18T13:39:31;24.20;47.10
84141;DHT22;74257;52.540;13.416;2023-11-18T13:41:57;24.20;47.10
84141;DHT22;74257;52.540;13.416;2023-11-18T13:44:36;24.20;47.20
84141;DHT22;74257;52.540;13.416;2023-11-18T13:47:07;24.20;47.20
84141;DHT22;74257;52.540;13.416;2023-11-18T13:49:33;24.20;47.10
84141;DHT22;74257;52.540;13.416;2023-11-18T13:52:02;24.20;47.00
84141;DHT22;74257;52.540;13.416;2023-11-18T13:54:28;24.20;47.00
84141;DHT22;74257;52.540;13.416;2023-11-18T13:56:58;24.20;47.00
84141;DHT22;74257;52.540;13.416;2023-11-18T13:59:25;24.20;46.90
84141;DHT22;74257;52.540;13.416;2023-11-18T14:01:55;24.20;46.90
84141;DHT22;74257;52.540;13.416;2023-11-18T14:04:28;24.20;46.90
84141;DHT22;74257;52.540;13.416;2023-11-18T14:06:58;24.20;46.80
84141;DHT22;74257;52.540;13.416;2023-11-18T14:09:25;24.20;46.80
84141;DHT22;74257;52.540;13.416;2023-11-18T14:11:53;24.20;46.80
84141;DHT22;74257;52.540;13.416;2023-11-18T14:14:23;24.20;46.80
84141;DHT22;74257;52.540;13.416;2023-11-18T14:16:49;24.20;46.80
84141;DHT22;74257;52.540;13.416;2023-11-18T14:19:15;24.20;46.80
84141;DHT22;74257;52.540;13.416;2023-11-18T14:21:42;24.20;46.70
84141;DHT22;74257;52.540;13.416;2023-11-18T14:24:08;24.30;46.70
84141;DHT22;74257;52.540;13.416;2023-11-18T14:26:36;24.20;46.60
84141;DHT22;74257;52.540;13.416;2023-11-18T14:29:02;24.20;46.70
84141;DHT22;74257;52.540;13.416;2023-11-18T14:31:28;24.30;46.60
84141;DHT22;74257;52.540;13.416;2023-11-18T14:33:54;24.30;46.60
84141;DHT22;74257;52.540;13.416;2023-11-18T14:36:25;24.20;46.60
84141;DHT22;74257;52.540;13.416;2023-11-18T14:38:51;24.30;46.60
84141;DHT22;74257;52.540;13.416;2023-11-18T14:41:17;24.20;46.60
84141;DHT22;74257;52.540;13.416;2023-11-18T14:43:46;24.20;46.60
84141;DHT22;74257;52.540;13.416;2023-11-18T14:46:11;24.20;46.60
84141;DHT22;74257;52.540;13.416;2023-11-18T14:48:40;24.20;46.60
84141;DHT22;74257;52.540;13.416;2023-11-18T14:51:06;24.20;46.60
84141;DHT22;74257;52.540;13.416;2023-11-18T14:53:33;24.20;46.70
84141;DHT22;74257;52.540;13.416;2023-11-18T14:56:00;24.20;46.70
84141;DHT22;74257;52.540;13.416;2023-11-18T14:58:26;24.20;46.70
84141;DHT22;74257;52.540;13.416;2023-11-18T15:00:52;24.20;46.70
84141;DHT22;74257;52.540;13.416;2023-11-18T15:03:22;24.20;46.70
84141;DHT22;74257;52.540;13.416;2023-11-18T15:05:48;24.20;46.70
84141;DHT22;74257;52.540;13.416;2023-11-18T15:08:14;24.20;46.80
84141;DHT22;74257;52.540;13.416;2023-11-18T15:10:41;24.20;46.80
84141;DHT22;74257;52.540;13.416;2023-11-18T15:13:10;24.20;46.80
84141;DHT22;74257;52.540;13.416;2023-11-18T15:15:41;24.20;46.70
84141;DHT22;74257;52.540;13.416;2023-11-18T15:18:07;24.20;46.70
84141;DHT22;74257;52.540;13.416;2023-11-18T15:20:40;24.20;46.40
84141;DHT22;74257;52.540;13.416;2023-11-18T15:23:12;24.20;44.50
84141;DHT22;74257;52.540;13.416;2023-11-18T15:25:38;24.20;44.30
84141;DHT22;74257;52.540;13.416;2023-11-18T15:28:05;24.20;44.50
84141;DHT22;74257;52.540;13.416;2023-11-18T15:30:38;24.20;44.50
84141;DHT22;74257;52.540;13.416;2023-11-18T15:33:08;24.20;44.40
84141;DHT22;74257;52.540;13.416;2023-11-18T15:35:37;24.20;44.40
84141;DHT22;74257;52.540;13.416;2023-11-18T15:38:04;24.20;44.50
84141;DHT22;74257;52.540;13.416;2023-11-18T15:40:35;24.20;44.60
84141;DHT22;74257;52.540;13.416;2023-11-18T15:43:03;24.20;44.70
84141;DHT22;74257;52.540;13.416;2023-11-18T15:45:31;24.20;44.70
84141;DHT22;74257;52.540;13.416;2023-11-18T15:47:58;24.20;44.70
84141;DHT22;74257;52.540;13.416;2023-11-18T15:50:31;24.20;44.90